Time;durP1;ratioP1;P1;durP2;ratioP2;P2;SDS_P1;SDS_P2;PMS_P1;PMS_P2;Temp;Humidity;BMP_temperature;BMP_pressure;BME280_temperature;BME280_humidity;BME280_pressure;Samples;Min_cycle;Max_cycle;Signal;HPM_P1;HPM_P2
2022/09/30 00:00:18;;;;;;;4.22;2.22;;;20.10;62.00;;;;;;4959282;28;88863;-87
2022/09/30 00:02:44;;;;;;;4.60;2.78;;;20.10;62.00;;;;;;4960615;28;87202;-87
2022/09/30 00:05:09;;;;;;;6.28;2.88;;;20.10;61.80;;;;;;4960222;28;86506;-87
2022/09/30 00:07:35;;;;;;;5.65;2.80;;;20.10;61.80;;;;;;4959119;28;88047;-87
2022/09/30 00:10:01;;;;;;;4.53;2.85;;;20.10;62.10;;;;;;4941577;28;90798;-87
2022/09/30 00:12:27;;;;;;;4.10;2.70;;;20.10;61.80;;;;;;4959109;28;87793;-87
2022/09/30 00:14:53;;;;;;;4.28;2.70;;;20.10;61.90;;;;;;4959354;28;87963;-87
2022/09/30 00:17:19;;;;;;;4.07;2.63;;;20.10;61.80;;;;;;4941455;28;92302;-87
2022/09/30 00:19:45;;;;;;;4.55;2.63;;;20.10;61.90;;;;;;4958393;28;89219;-87
2022/09/30 00:22:11;;;;;;;5.32;3.10;;;20.10;62.10;;;;;;4959487;28;87545;-87
2022/09/30 00:24:37;;;;;;;4.68;2.88;;;20.10;61.80;;;;;;4958465;28;88091;-87
2022/09/30 00:27:02;;;;;;;4.88;2.90;;;20.10;61.90;;;;;;4935364;28;89755;-87
2022/09/30 00:29:28;;;;;;;6.25;2.47;;;20.10;61.80;;;;;;4937489;28;87963;-87
2022/09/30 00:31:54;;;;;;;3.58;2.50;;;20.00;61.70;;;;;;4936978;28;87077;-87
2022/09/30 00:34:19;;;;;;;4.75;2.35;;;20.10;61.80;;;;;;4936642;28;89678;-87
2022/09/30 00:36:49;;;;;;;4.05;2.65;;;20.00;61.80;;;;;;4935329;28;89271;-87
2022/09/30 00:39:22;;;;;;;3.97;2.33;;;20.00;61.70;;;;;;4936211;28;88221;-88
2022/09/30 00:41:56;;;;;;;4.78;3.05;;;20.00;61.70;;;;;;4920409;28;87150;-87
2022/09/30 00:44:45;;;;;;;3.67;2.45;;;20.00;61.80;;;;;;4936637;28;87251;-87
2022/09/30 00:47:38;;;;;;;4.35;2.25;;;20.00;61.50;;;;;;4955911;28;93362;-88
2022/09/30 00:50:31;;;;;;;5.22;3.05;;;20.00;61.80;;;;;;4935745;28;91344;-87
2022/09/30 00:53:23;;;;;;;5.55;2.65;;;20.00;61.80;;;;;;4885888;28;87618;-87
2022/09/30 00:56:02;;;;;;;5.68;2.90;;;20.00;61.50;;;;;;4888178;28;87035;-88
2022/09/30 00:58:43;;;;;;;4.38;2.80;;;20.00;61.60;;;;;;4887391;28;88577;-87
2022/09/30 01:01:09;;;;;;;4.97;2.92;;;20.00;61.80;;;;;;4896725;28;88405;-87
2022/09/30 01:03:44;;;;;;;3.88;2.47;;;20.00;61.80;;;;;;4906168;28;95369;-88
2022/09/30 01:06:10;;;;;;;4.80;2.65;;;20.00;61.70;;;;;;4907230;28;87065;-87
2022/09/30 01:08:38;;;;;;;4.05;2.63;;;20.00;61.80;;;;;;4906962;28;88135;-87
2022/09/30 01:11:03;;;;;;;4.28;2.63;;;20.00;61.70;;;;;;4908049;28;88343;-87
2022/09/30 01:13:30;;;;;;;3.90;2.63;;;19.90;61.60;;;;;;4906535;28;87171;-87
2022/09/30 01:16:05;;;;;;;3.65;2.10;;;20.00;61.70;;;;;;4907213;28;88076;-88
2022/09/30 01:18:36;;;;;;;4.68;2.55;;;19.90;61.70;;;;;;4907094;28;91109;-87
2022/09/30 01:21:20;;;;;;;3.25;2.25;;;19.90;61.60;;;;;;4907179;28;86734;-87
2022/09/30 01:24:19;;;;;;;3.78;2.45;;;19.90;61.40;;;;;;4898744;28;87186;-86
2022/09/30 01:26:56;;;;;;;4.28;1.95;;;19.90;61.40;;;;;;4905649;28;86971;-87
2022/09/30 01:29:40;;;;;;;4.25;2.78;;;19.90;61.50;;;;;;4921450;28;93834;-87
2022/09/30 01:32:40;;;;;;;3.72;2.28;;;19.90;61.50;;;;;;4958435;28;89257;-87
2022/09/30 01:35:20;;;;;;;5.50;2.60;;;19.90;61.40;;;;;;4958513;28;87200;-87
2022/09/30 01:38:13;;;;;;;3.63;2.63;;;19.90;61.50;;;;;;4940283;28;90623;-87
2022/09/30 01:41:10;;;;;;;4.75;2.70;;;19.90;61.50;;;;;;4956747;28;88499;-87
2022/09/30 01:43:47;;;;;;;4.35;2.63;;;19.90;61.40;;;;;;4956095;28;91648;-87
2022/09/30 01:46:32;;;;;;;5.82;2.28;;;19.90;61.50;;;;;;4953417;28;87790;-87
2022/09/30 01:49:11;;;;;;;4.43;2.53;;;19.80;61.50;;;;;;4945446;28;90615;-87
2022/09/30 01:52:04;;;;;;;4.43;2.53;;;19.80;61.50;;;;;;4954226;28;87830;-87
2022/09/30 01:54:33;;;;;;;3.50;2.42;;;19.80;61.50;;;;;;4954643;28;88029;-87
2022/09/30 01:57:11;;;;;;;4.78;2.70;;;19.80;61.40;;;;;;4954227;28;87961;-87
2022/09/30 02:00:05;;;;;;;3.30;2.40;;;19.80;61.50;;;;;;4952726;28;88063;-87
2022/09/30 02:02:35;;;;;;;3.53;2.13;;;19.80;61.50;;;;;;4973299;28;92987;-87
2022/09/30 02:05:19;;;;;;;4.30;2.38;;;19.80;61.60;;;;;;4973601;28;88873;-87
2022/09/30 02:07:53;;;;;;;3.70;2.33;;;19.80;61.50;;;;;;4957267;28;87030;-87
2022/09/30 02:10:27;;;;;;;4.28;2.85;;;19.80;61.40;;;;;;4954905;28;87344;-87
2022/09/30 02:12:58;;;;;;;2.97;2.10;;;19.80;61.50;;;;;;4938290;28;90482;-87
2022/09/30 02:15:29;;;;;;;2.67;2.03;;;19.80;61.40;;;;;;4955880;28;88210;-87
2022/09/30 02:18:00;;;;;;;4.72;2.50;;;19.70;61.40;;;;;;4956541;28;88287;-87
2022/09/30 02:20:30;;;;;;;2.80;2.17;;;19.80;61.60;;;;;;4958216;28;88054;-87
2022/09/30 02:23:14;;;;;;;3.58;2.72;;;19.70;61.70;;;;;;4957071;28;89388;-87
2022/09/30 02:25:46;;;;;;;3.45;2.28;;;19.70;61.40;;;;;;4939590;28;90864;-87
2022/09/30 02:28:19;;;;;;;3.40;2.20;;;19.70;61.30;;;;;;4940139;28;87027;-87
2022/09/30 02:30:49;;;;;;;2.90;2.30;;;19.70;61.40;;;;;;4957620;28;87511;-87
2022/09/30 02:33:21;;;;;;;4.10;2.45;;;19.70;61.30;;;;;;4957516;28;88793;-87
2022/09/30 02:35:53;;;;;;;3.85;2.30;;;19.70;61.30;;;;;;4957944;28;87554;-87
2022/09/30 02:38:29;;;;;;;4.03;2.40;;;19.70;61.20;;;;;;4958214;28;87231;-87
2022/09/30 02:41:05;;;;;;;3.42;2.13;;;19.70;61.40;;;;;;4973182;28;90490;-87
2022/09/30 02:43:31;;;;;;;3.00;2.25;;;19.70;61.50;;;;;;4974933;28;91624;-88
2022/09/30 02:45:56;;;;;;;3.28;2.30;;;19.70;61.40;;;;;;4976226;28;88412;-87
2022/09/30 02:48:28;;;;;;;4.07;2.58;;;19.70;61.50;;;;;;4976834;28;87999;-87
2022/09/30 02:51:34;;;;;;;3.45;2.20;;;19.70;61.40;;;;;;4976804;28;87360;-87
2022/09/30 02:54:25;;;;;;;2.90;2.15;;;19.70;61.40;;;;;;4973671;28;88473;-87
2022/09/30 02:57:11;;;;;;;4.30;2.70;;;19.70;61.40;;;;;;4956311;28;87916;-87
2022/09/30 02:59:38;;;;;;;4.45;2.53;;;19.70;61.40;;;;;;4958410;28;87260;-87
2022/09/30 03:02:04;;;;;;;3.15;2.30;;;19.60;61.30;;;;;;4956586;28;86942;-88
2022/09/30 03:04:33;;;;;;;2.97;2.38;;;19.60;61.60;;;;;;4957270;28;89118;-87
2022/09/30 03:06:59;;;;;;;;;;;19.60;61.50;;;;;;4958088;28;89111;-87
2022/09/30 03:09:26;;;;;;;4.45;2.17;;;19.60;61.50;;;;;;4958014;28;87271;-87
2022/09/30 03:12:00;;;;;;;3.00;1.95;;;19.60;61.50;;;;;;4956553;28;86912;-87
2022/09/30 03:14:47;;;;;;;4.50;2.47;;;19.60;61.40;;;;;;4948147;28;91645;-87
2022/09/30 03:17:16;;;;;;;2.55;1.88;;;19.60;61.40;;;;;;4977000;28;93127;-87
2022/09/30 03:20:13;;;;;;;4.00;2.20;;;19.60;61.40;;;;;;4961655;28;87468;-87
2022/09/30 03:23:00;;;;;;;3.72;2.28;;;19.60;61.30;;;;;;4878860;28;89867;-87
2022/09/30 03:25:37;;;;;;;2.67;2.17;;;19.60;61.60;;;;;;4905376;28;88614;-87
2022/09/30 03:28:14;;;;;;;3.70;1.98;;;19.60;61.40;;;;;;4905157;28;88401;-87
2022/09/30 03:31:03;;;;;;;2.90;2.00;;;19.60;61.40;;;;;;4905815;28;87394;-87
2022/09/30 03:33:38;;;;;;;3.87;2.33;;;19.60;61.40;;;;;;4893485;28;89310;-88
2022/09/30 03:36:09;;;;;;;2.17;1.80;;;19.60;61.30;;;;;;4879608;28;88377;-87
2022/09/30 03:38:47;;;;;;;2.58;1.95;;;19.60;61.30;;;;;;4880138;28;88261;-87
2022/09/30 03:41:42;;;;;;;2.77;1.93;;;19.60;61.40;;;;;;4864586;28;89096;-87
2022/09/30 03:44:32;;;;;;;2.65;2.00;;;19.50;61.30;;;;;;4880327;28;87803;-88
2022/09/30 03:47:06;;;;;;;3.13;2.05;;;19.50;61.20;;;;;;4860580;29;88235;-87
2022/09/30 03:49:55;;;;;;;3.17;2.33;;;19.50;61.40;;;;;;4861904;28;88436;-87
2022/09/30 03:52:25;;;;;;;3.93;2.50;;;19.50;61.40;;;;;;4860768;29;88225;-87
2022/09/30 03:54:53;;;;;;;3.38;2.03;;;19.50;61.10;;;;;;4860304;29;87745;-87
2022/09/30 03:57:19;;;;;;;3.13;2.28;;;19.50;61.20;;;;;;4861491;29;88798;-87
2022/09/30 03:59:45;;;;;;;3.50;2.00;;;19.50;61.30;;;;;;4861909;29;88684;-87
2022/09/30 04:02:12;;;;;;;3.45;2.10;;;19.50;61.20;;;;;;4879735;28;87131;-87
2022/09/30 04:04:39;;;;;;;2.15;1.88;;;19.50;61.30;;;;;;4879731;28;87355;-87
2022/09/30 04:07:05;;;;;;;3.05;1.95;;;19.50;61.20;;;;;;4877888;28;92052;-87
2022/09/30 04:09:31;;;;;;;3.22;1.88;;;19.50;61.20;;;;;;4857086;28;92603;-87
2022/09/30 04:11:56;;;;;;;2.47;2.00;;;19.50;61.20;;;;;;4916392;28;87764;-87
2022/09/30 04:14:22;;;;;;;2.75;1.60;;;19.50;61.10;;;;;;4917076;28;87453;-86
2022/09/30 04:16:47;;;;;;;3.10;2.08;;;19.50;61.20;;;;;;4917500;28;88552;-85
2022/09/30 04:19:13;;;;;;;3.45;2.00;;;19.50;61.40;;;;;;4970599;28;87924;-86
2022/09/30 04:21:38;;;;;;;2.63;1.90;;;19.50;61.10;;;;;;4973701;28;87384;-87
2022/09/30 04:24:04;;;;;;;4.43;2.30;;;19.50;61.10;;;;;;4941450;28;89709;-87
2022/09/30 04:26:30;;;;;;;2.63;2.00;;;19.50;60.40;;;;;;4957992;28;90354;-85
2022/09/30 04:28:57;;;;;;;5.40;1.98;;;19.50;60.20;;;;;;4958706;28;88376;-86
2022/09/30 04:31:23;;;;;;;4.13;2.28;;;19.50;60.70;;;;;;4958339;28;88594;-84
2022/09/30 04:33:49;;;;;;;4.50;2.38;;;19.50;60.80;;;;;;4958821;28;87296;-85
2022/09/30 04:36:15;;;;;;;3.38;2.28;;;19.50;60.80;;;;;;4958217;28;88599;-87
2022/09/30 04:38:41;;;;;;;5.47;2.30;;;19.50;61.00;;;;;;4940266;28;89791;-88
2022/09/30 04:41:10;;;;;;;4.90;2.72;;;19.50;61.10;;;;;;4959466;28;87344;-87
2022/09/30 04:43:35;;;;;;;4.22;2.33;;;19.50;61.00;;;;;;4958558;28;87524;-87
2022/09/30 04:46:01;;;;;;;3.80;2.33;;;19.50;61.00;;;;;;4958258;28;88519;-87
2022/09/30 04:48:30;;;;;;;8.90;2.22;;;19.50;58.80;;;;;;4941608;28;91400;-87
2022/09/30 04:50:58;;;;;;;6.73;2.80;;;19.50;58.90;;;;;;4958265;28;87491;-87
2022/09/30 04:53:23;;;;;;;5.25;2.58;;;19.40;59.50;;;;;;4957970;28;90809;-87
2022/09/30 04:55:49;;;;;;;2.78;1.90;;;19.40;59.40;;;;;;4958229;28;89426;-88
2022/09/30 04:58:15;;;;;;;3.75;2.30;;;19.40;59.40;;;;;;4940392;28;92271;-87
2022/09/30 05:00:41;;;;;;;4.68;2.10;;;19.40;59.30;;;;;;4940969;28;87562;-87
2022/09/30 05:03:07;;;;;;;4.40;2.28;;;19.30;59.40;;;;;;4958532;28;87197;-87
2022/09/30 05:05:32;;;;;;;3.05;2.00;;;19.30;59.60;;;;;;4960114;28;88077;-88
2022/09/30 05:08:00;;;;;;;5.47;2.05;;;19.30;59.50;;;;;;4957923;28;87554;-88
2022/09/30 05:10:26;;;;;;;6.93;2.40;;;19.30;59.50;;;;;;4956949;28;87207;-87
2022/09/30 05:12:52;;;;;;;3.80;2.22;;;19.30;59.30;;;;;;4959116;28;86887;-87
2022/09/30 05:15:17;;;;;;;4.63;2.45;;;19.30;59.30;;;;;;4958230;28;87514;-87
2022/09/30 05:17:43;;;;;;;5.25;2.35;;;19.20;59.30;;;;;;4940856;28;91100;-87
2022/09/30 05:20:10;;;;;;;5.07;2.40;;;19.20;59.30;;;;;;4958135;28;88262;-88
2022/09/30 05:22:37;;;;;;;3.65;2.33;;;19.20;59.20;;;;;;4939438;28;89667;-87
2022/09/30 05:25:03;;;;;;;3.55;2.35;;;19.20;59.40;;;;;;4947302;28;91580;-87
2022/09/30 05:27:29;;;;;;;3.25;2.20;;;19.20;59.60;;;;;;4957681;28;88293;-87
2022/09/30 05:29:54;;;;;;;4.03;2.17;;;19.20;59.40;;;;;;4958534;28;87212;-87
2022/09/30 05:32:21;;;;;;;3.33;2.20;;;19.20;59.30;;;;;;4959248;28;87550;-88
2022/09/30 05:34:47;;;;;;;2.42;1.85;;;19.20;59.20;;;;;;4958238;28;88810;-87
2022/09/30 05:37:12;;;;;;;3.13;2.13;;;19.20;59.30;;;;;;4958528;28;88362;-87
2022/09/30 05:39:38;;;;;;;4.15;1.83;;;19.20;59.10;;;;;;4957797;28;87378;-88
2022/09/30 05:42:04;;;;;;;8.68;2.40;;;19.20;59.10;;;;;;4957709;28;87002;-87
2022/09/30 05:44:29;;;;;;;4.50;1.95;;;19.20;59.30;;;;;;4958151;28;89938;-87
2022/09/30 05:46:55;;;;;;;3.63;2.00;;;19.20;59.10;;;;;;4974396;28;88725;-88
2022/09/30 05:49:21;;;;;;;6.88;2.55;;;19.20;59.10;;;;;;4963898;28;87079;-88
2022/09/30 05:51:47;;;;;;;2.63;2.10;;;19.20;59.10;;;;;;4939742;28;90559;-87
2022/09/30 05:54:12;;;;;;;8.32;2.47;;;19.20;59.00;;;;;;4939730;28;90099;-87
2022/09/30 05:56:38;;;;;;;8.15;3.13;;;19.10;58.90;;;;;;4958315;28;88554;-88
2022/09/30 05:59:05;;;;;;;5.07;2.55;;;19.10;59.00;;;;;;4956030;28;87065;-87
2022/09/30 06:01:31;;;;;;;6.35;2.45;;;19.10;59.00;;;;;;4956011;28;89349;-87
2022/09/30 06:03:57;;;;;;;10.38;3.08;;;19.10;58.80;;;;;;4938985;28;89847;-88
2022/09/30 06:06:23;;;;;;;7.18;2.40;;;19.10;58.90;;;;;;4924549;28;89126;-87
2022/09/30 06:08:48;;;;;;;8.35;2.85;;;19.10;58.90;;;;;;4925942;28;88377;-85
2022/09/30 06:11:17;;;;;;;4.25;2.22;;;19.20;59.00;;;;;;4927157;28;87422;-84
2022/09/30 06:13:43;;;;;;;4.50;2.30;;;19.20;59.00;;;;;;4925743;28;89260;-85
2022/09/30 06:16:10;;;;;;;3.97;2.35;;;19.20;58.70;;;;;;4909042;28;91480;-85
2022/09/30 06:18:39;;;;;;;5.05;2.40;;;19.20;58.40;;;;;;4926664;28;87282;-88
2022/09/30 06:21:06;;;;;;;9.50;3.05;;;19.20;58.70;;;;;;4925662;28;88859;-87
2022/09/30 06:23:35;;;;;;;7.40;2.58;;;19.30;58.40;;;;;;4925087;28;89086;-87
2022/09/30 06:26:03;;;;;;;8.00;3.03;;;19.40;58.90;;;;;;4925425;28;90267;-87
2022/09/30 06:28:28;;;;;;;7.25;2.70;;;19.50;58.20;;;;;;4924290;28;87700;-87
2022/09/30 06:30:54;;;;;;;3.83;2.20;;;19.60;58.10;;;;;;4925111;28;87409;-85
2022/09/30 06:33:20;;;;;;;4.28;2.17;;;19.70;57.80;;;;;;4923598;28;90444;-86
2022/09/30 06:35:47;;;;;;;8.88;3.00;;;19.80;57.50;;;;;;4925134;28;87681;-85
2022/09/30 06:38:16;;;;;;;5.90;2.42;;;19.90;57.50;;;;;;4926554;28;87466;-84
2022/09/30 06:40:42;;;;;;;5.63;2.53;;;20.00;57.30;;;;;;4924283;28;89375;-84
2022/09/30 06:43:08;;;;;;;6.32;2.40;;;20.10;57.50;;;;;;4931474;28;88645;-85
2022/09/30 06:45:37;;;;;;;6.07;2.58;;;20.10;57.30;;;;;;4956006;28;90255;-84
2022/09/30 06:48:04;;;;;;;4.53;2.35;;;20.10;57.30;;;;;;4957017;28;87415;-87
2022/09/30 06:50:31;;;;;;;4.60;2.10;;;20.20;57.40;;;;;;4940128;28;90455;-87
2022/09/30 06:53:01;;;;;;;7.75;2.85;;;20.20;57.40;;;;;;4938187;28;89524;-86
2022/09/30 06:55:28;;;;;;;17.58;4.05;;;20.30;57.40;;;;;;4955353;28;93722;-87
2022/09/30 06:57:55;;;;;;;15.25;4.18;;;20.30;57.20;;;;;;4938973;28;87964;-88
2022/09/30 07:00:22;;;;;;;16.85;3.90;;;20.40;57.50;;;;;;4959277;28;87425;-87
2022/09/30 07:02:48;;;;;;;99.35;23.25;;;20.50;57.30;;;;;;4960000;28;87681;-88
2022/09/30 07:05:15;;;;;;;67.18;16.80;;;20.50;55.20;;;;;;4942198;28;91378;-85
2022/09/30 07:07:41;;;;;;;68.43;15.93;;;20.50;55.30;;;;;;4960049;28;87755;-88
2022/09/30 07:10:07;;;;;;;50.13;11.73;;;20.40;55.70;;;;;;4958897;28;87583;-87
2022/09/30 07:12:33;;;;;;;50.35;14.32;;;20.40;56.20;;;;;;4940310;28;90485;-87
2022/09/30 07:14:59;;;;;;;51.65;13.13;;;20.40;56.20;;;;;;4941343;28;91062;-90
2022/09/30 07:17:26;;;;;;;52.83;13.15;;;20.40;56.50;;;;;;4942177;28;87427;-85
2022/09/30 07:19:54;;;;;;;50.40;14.23;;;20.40;56.10;;;;;;4958378;28;87466;-86
2022/09/30 07:22:26;;;;;;;44.38;12.32;;;20.40;55.40;;;;;;4956965;28;89698;-86
2022/09/30 07:24:52;;;;;;;43.42;12.27;;;20.40;56.10;;;;;;4958233;28;91628;-86
2022/09/30 07:27:18;;;;;;;40.50;12.05;;;20.50;56.30;;;;;;4929813;28;88595;-86
2022/09/30 07:29:44;;;;;;;40.20;12.85;;;20.50;56.40;;;;;;4977241;28;87803;-87
2022/09/30 07:32:11;;;;;;;42.20;12.85;;;20.50;56.10;;;;;;4958512;28;87487;-85
2022/09/30 07:34:41;;;;;;;42.63;12.20;;;20.60;55.50;;;;;;4972102;28;91577;-85
2022/09/30 07:37:13;;;;;;;42.80;13.57;;;20.50;56.20;;;;;;4959901;28;87661;-84
2022/09/30 07:39:39;;;;;;;39.92;12.80;;;20.50;54.00;;;;;;4978034;28;86669;-88
2022/09/30 07:42:05;;;;;;;38.53;11.82;;;20.50;56.10;;;;;;4957089;28;92106;-85
2022/09/30 07:44:31;;;;;;;31.88;13.52;;;20.50;55.90;;;;;;4950661;28;90333;-88
2022/09/30 07:46:57;;;;;;;37.83;14.30;;;20.50;53.30;;;;;;4958203;28;88036;-85
2022/09/30 07:49:24;;;;;;;25.55;13.20;;;20.30;53.10;;;;;;4958375;28;86901;-86
2022/09/30 07:51:52;;;;;;;34.45;11.68;;;20.30;54.00;;;;;;4957807;28;88692;-85
2022/09/30 07:54:21;;;;;;;37.88;11.05;;;20.30;55.80;;;;;;4958662;28;88590;-87
2022/09/30 07:56:48;;;;;;;33.83;12.07;;;20.40;55.20;;;;;;4951101;28;86948;-85
2022/09/30 07:59:14;;;;;;;29.30;11.65;;;20.40;55.70;;;;;;4958077;28;87516;-84
2022/09/30 08:01:40;;;;;;;28.70;12.25;;;20.40;54.90;;;;;;4929449;28;92669;-84
2022/09/30 08:04:35;;;;;;;;;;;;;;;;;;;;;
2022/09/30 08:07:02;;;;;;;44.15;12.75;;;20.40;55.40;;;;;;4957800;28;87125;-86
2022/09/30 08:09:32;;;;;;;37.08;11.23;;;20.40;55.00;;;;;;4958044;28;87596;-85
2022/09/30 08:11:57;;;;;;;32.75;10.82;;;20.40;55.10;;;;;;4938560;28;91797;-84
2022/09/30 08:14:25;;;;;;;38.83;11.65;;;20.40;55.40;;;;;;4958903;28;89041;-84
2022/09/30 08:16:51;;;;;;;33.55;11.02;;;20.40;55.60;;;;;;4958048;28;87101;-84
2022/09/30 08:19:20;;;;;;;34.97;10.77;;;20.40;55.40;;;;;;4958843;28;87651;-84
2022/09/30 08:21:47;;;;;;;27.23;10.70;;;20.50;55.50;;;;;;4958668;28;88715;-84
2022/09/30 08:24:13;;;;;;;37.47;11.85;;;20.50;55.50;;;;;;4956835;28;91028;-84
2022/09/30 08:26:39;;;;;;;27.70;9.73;;;20.50;55.50;;;;;;4940027;28;87988;-84
2022/09/30 08:29:05;;;;;;;30.80;11.38;;;20.50;56.20;;;;;;4958671;28;86914;-85
2022/09/30 08:31:32;;;;;;;36.80;11.15;;;20.40;55.50;;;;;;4958319;28;89169;-85
2022/09/30 08:33:58;;;;;;;33.72;11.77;;;20.40;55.60;;;;;;4958553;28;87763;-85
2022/09/30 08:36:25;;;;;;;25.27;9.77;;;20.40;55.80;;;;;;4956904;28;89126;-85
2022/09/30 08:38:52;;;;;;;26.95;9.68;;;20.40;55.80;;;;;;4959058;28;87142;-85
2022/09/30 08:41:39;;;;;;;26.42;10.23;;;20.30;55.80;;;;;;4961616;28;87868;-85
2022/09/30 08:44:38;;;;;;;27.05;9.88;;;20.30;56.00;;;;;;4957851;28;88424;-86
2022/09/30 08:47:22;;;;;;;26.08;10.05;;;20.30;56.00;;;;;;4949448;28;88023;-85
2022/09/30 08:50:25;;;;;;;27.55;9.75;;;20.30;56.30;;;;;;4956366;28;87587;-85
2022/09/30 08:52:56;;;;;;;27.30;9.82;;;20.30;56.40;;;;;;4957711;28;89094;-87
2022/09/30 08:55:30;;;;;;;35.28;9.68;;;20.30;56.50;;;;;;4956863;28;87397;-87
2022/09/30 08:57:56;;;;;;;22.65;8.55;;;20.30;56.70;;;;;;4939745;28;87714;-84
2022/09/30 09:00:23;;;;;;;25.30;9.98;;;20.30;56.60;;;;;;4938925;28;90081;-83
2022/09/30 09:02:57;;;;;;;24.50;8.57;;;20.20;56.60;;;;;;4938506;28;92507;-84
2022/09/30 09:05:38;;;;;;;21.58;8.50;;;20.30;56.70;;;;;;4958144;28;88947;-84
2022/09/30 09:08:33;;;;;;;30.40;9.50;;;20.20;56.60;;;;;;4955872;28;87308;-83
2022/09/30 09:11:28;;;;;;;34.60;9.40;;;20.30;56.70;;;;;;4954936;28;88423;-83
2022/09/30 09:14:22;;;;;;;25.80;8.98;;;20.30;57.10;;;;;;4938511;28;92205;-83
2022/09/30 09:17:06;;;;;;;22.73;8.45;;;20.30;57.10;;;;;;4956982;28;87969;-83
2022/09/30 09:19:42;;;;;;;22.75;8.63;;;20.30;57.30;;;;;;4947503;28;87654;-84
2022/09/30 09:22:09;;;;;;;21.08;8.73;;;20.30;57.60;;;;;;4956378;28;87503;-83
2022/09/30 09:24:45;;;;;;;22.35;8.85;;;20.20;57.70;;;;;;4938543;28;91120;-86
2022/09/30 09:27:24;;;;;;;23.23;9.15;;;20.30;57.90;;;;;;4957295;28;88264;-85
2022/09/30 09:30:07;;;;;;;24.75;8.95;;;20.30;57.80;;;;;;4955672;28;88382;-84
2022/09/30 09:32:34;;;;;;;24.65;8.55;;;20.30;57.50;;;;;;4958661;28;87511;-84
2022/09/30 09:35:21;;;;;;;22.02;8.27;;;20.40;57.50;;;;;;4957429;28;87768;-84
2022/09/30 09:38:23;;;;;;;22.48;8.38;;;20.40;57.50;;;;;;4934579;28;87568;-85
2022/09/30 09:41:08;;;;;;;16.55;8.40;;;20.40;57.50;;;;;;4917515;28;87156;-86
2022/09/30 09:43:50;;;;;;;30.90;8.73;;;20.40;57.60;;;;;;4930766;28;91224;-83
2022/09/30 09:46:40;;;;;;;23.90;8.70;;;20.40;57.80;;;;;;4918634;28;91685;-86
2022/09/30 09:49:22;;;;;;;23.65;8.20;;;20.40;58.10;;;;;;4920382;28;91370;-89
2022/09/30 09:52:12;;;;;;;23.23;9.20;;;20.30;58.20;;;;;;4926976;28;86976;-86
2022/09/30 09:54:44;;;;;;;17.58;8.48;;;20.30;58.30;;;;;;4904989;28;90791;-86
2022/09/30 09:57:13;;;;;;;26.25;9.68;;;20.30;58.70;;;;;;4932735;28;88960;-87
2022/09/30 10:03:08;;;;;;;20.00;7.88;;;20.30;59.10;;;;;;4934067;28;87146;-86
2022/09/30 10:05:41;;;;;;;18.95;8.55;;;20.30;59.30;;;;;;4935603;28;87678;-86
2022/09/30 10:08:18;;;;;;;21.60;9.35;;;20.30;59.30;;;;;;4933835;28;87762;-87
2022/09/30 10:11:03;;;;;;;19.38;8.15;;;20.30;59.50;;;;;;4934142;28;91364;-88
2022/09/30 10:13:39;;;;;;;21.92;9.13;;;20.30;59.60;;;;;;4933531;28;87028;-82
2022/09/30 10:16:05;;;;;;;19.40;7.72;;;20.30;59.50;;;;;;4973465;28;86903;-82
2022/09/30 10:18:36;;;;;;;21.60;8.45;;;20.30;59.60;;;;;;4977052;28;87180;-84
2022/09/30 10:21:18;;;;;;;26.45;8.85;;;20.30;59.90;;;;;;4976220;28;87884;-82
2022/09/30 10:23:43;;;;;;;20.58;8.85;;;20.30;59.90;;;;;;4977796;28;88302;-85
2022/09/30 10:26:23;;;;;;;29.67;9.80;;;20.30;59.60;;;;;;4976717;28;87661;-84
2022/09/30 10:28:58;;;;;;;24.00;8.15;;;20.30;59.40;;;;;;4957323;28;91448;-85
2022/09/30 10:31:28;;;;;;;20.30;7.45;;;20.30;59.40;;;;;;4975111;28;87642;-83
2022/09/30 10:34:28;;;;;;;19.83;8.40;;;20.40;59.20;;;;;;4975839;28;87882;-86
2022/09/30 10:36:55;;;;;;;18.48;6.40;;;20.40;59.00;;;;;;4895269;28;87485;-84
2022/09/30 10:39:31;;;;;;;17.23;7.53;;;20.50;58.40;;;;;;4895483;28;88734;-83
2022/09/30 10:42:03;;;;;;;16.92;7.50;;;20.50;58.10;;;;;;4904491;28;90783;-84
2022/09/30 10:44:29;;;;;;;17.60;6.78;;;20.40;58.30;;;;;;4895310;28;87338;-84
2022/09/30 10:47:02;;;;;;;16.50;7.05;;;20.40;58.40;;;;;;4894709;28;87707;-85
2022/09/30 10:49:44;;;;;;;17.27;6.90;;;20.40;58.00;;;;;;4895880;28;89136;-83
2022/09/30 10:52:19;;;;;;;29.25;7.93;;;20.40;57.90;;;;;;4894879;28;89184;-84
2022/09/30 10:54:53;;;;;;;27.15;7.93;;;20.30;57.70;;;;;;4894165;28;87062;-83
2022/09/30 10:57:27;;;;;;;23.98;8.85;;;20.30;58.20;;;;;;4894626;28;90647;-83
2022/09/30 11:00:11;;;;;;;27.10;8.80;;;20.30;58.20;;;;;;4895815;28;88576;-82
2022/09/30 11:03:02;;;;;;;37.33;9.82;;;20.30;58.50;;;;;;4896000;28;87770;-83
2022/09/30 11:05:37;;;;;;;27.33;8.93;;;20.30;59.00;;;;;;4860923;28;88714;-79
2022/09/30 11:08:08;;;;;;;25.95;9.23;;;20.30;58.90;;;;;;4893603;28;88655;-85
2022/09/30 11:10:43;;;;;;;26.60;8.80;;;20.30;58.80;;;;;;4902926;28;90441;-81
2022/09/30 11:13:36;;;;;;;24.13;8.73;;;20.30;59.20;;;;;;4911549;28;88458;-84
2022/09/30 11:16:31;;;;;;;26.25;8.50;;;20.30;59.30;;;;;;4964209;28;88256;-82
2022/09/30 11:19:27;;;;;;;33.92;8.52;;;20.30;59.40;;;;;;4938452;28;90402;-81
2022/09/30 11:21:55;;;;;;;19.40;6.95;;;20.30;59.50;;;;;;4894805;28;92623;-84
2022/09/30 11:24:39;;;;;;;28.13;8.57;;;20.20;59.80;;;;;;4878043;28;91263;-81
2022/09/30 11:27:19;;;;;;;24.10;7.70;;;20.30;59.90;;;;;;4894441;28;87613;-82
2022/09/30 11:29:57;;;;;;;24.02;7.50;;;20.20;60.20;;;;;;4895601;28;88409;-82
2022/09/30 11:32:39;;;;;;;29.20;8.57;;;20.20;60.20;;;;;;4894742;28;93120;-82
2022/09/30 11:35:19;;;;;;;23.75;7.72;;;20.20;60.20;;;;;;4893271;28;88605;-82
2022/09/30 11:38:03;;;;;;;24.52;7.85;;;20.20;60.30;;;;;;4894042;28;87197;-82
2022/09/30 11:40:53;;;;;;;26.23;8.18;;;20.20;60.30;;;;;;4906109;28;90294;-82
2022/09/30 11:43:24;;;;;;;18.45;6.60;;;20.20;60.50;;;;;;4894853;28;89224;-82
2022/09/30 11:46:20;;;;;;;27.08;7.45;;;20.20;60.70;;;;;;4894531;28;88412;-83
2022/09/30 11:49:15;;;;;;;20.92;7.93;;;20.20;60.60;;;;;;4890674;28;87471;-81
2022/09/30 11:51:58;;;;;;;20.67;6.85;;;20.20;60.50;;;;;;4898188;28;87514;-82
2022/09/30 11:54:42;;;;;;;19.10;6.95;;;20.20;60.40;;;;;;4891733;28;87844;-84
2022/09/30 11:57:22;;;;;;;20.85;7.22;;;20.20;60.60;;;;;;4881330;28;87592;-84
2022/09/30 12:00:14;;;;;;;16.50;6.75;;;20.20;60.60;;;;;;4954815;28;87329;-82
2022/09/30 12:02:52;;;;;;;20.73;7.05;;;20.30;60.20;;;;;;4959293;28;87539;-82
2022/09/30 12:05:41;;;;;;;19.80;7.60;;;20.30;60.30;;;;;;4960081;28;95518;-83
2022/09/30 12:08:18;;;;;;;22.25;6.88;;;20.20;60.30;;;;;;4978454;28;88851;-84
2022/09/30 12:10:52;;;;;;;16.35;6.30;;;20.20;60.50;;;;;;4958652;28;88753;-84
2022/09/30 12:13:24;;;;;;;21.10;6.05;;;20.10;60.60;;;;;;4956475;28;89802;-84
2022/09/30 12:15:54;;;;;;;20.67;7.22;;;20.10;60.70;;;;;;4966054;28;88493;-84
2022/09/30 12:18:28;;;;;;;18.70;6.90;;;20.10;60.50;;;;;;4977892;28;87725;-83
2022/09/30 12:20:59;;;;;;;16.05;7.07;;;20.10;60.70;;;;;;4977411;28;87284;-84
2022/09/30 12:23:41;;;;;;;20.85;6.53;;;20.10;60.80;;;;;;4979421;28;87464;-84
2022/09/30 12:26:07;;;;;;;16.23;6.43;;;20.10;60.80;;;;;;4958954;28;88483;-85
2022/09/30 12:31:51;;;;;;;22.63;7.85;;;20.10;60.50;;;;;;4957384;28;86990;-83
2022/09/30 12:34:47;;;;;;;19.13;6.97;;;20.10;60.50;;;;;;4939917;28;89861;-84
2022/09/30 12:37:40;;;;;;;16.55;6.10;;;20.10;60.50;;;;;;4941104;28;91744;-84
2022/09/30 12:40:29;;;;;;;19.35;7.22;;;20.10;60.60;;;;;;4958459;28;89339;-84
2022/09/30 12:43:22;;;;;;;15.05;6.32;;;20.10;60.50;;;;;;4956747;28;87360;-84
2022/09/30 12:46:03;;;;;;;17.30;6.68;;;20.10;60.40;;;;;;4958718;28;87431;-84
2022/09/30 12:48:48;;;;;;;19.15;6.95;;;20.20;60.30;;;;;;4939739;28;91749;-84
2022/09/30 12:51:30;;;;;;;17.65;5.93;;;20.20;60.10;;;;;;4958234;28;89228;-84
2022/09/30 12:54:06;;;;;;;18.10;6.18;;;20.20;59.90;;;;;;4958969;28;87295;-84
2022/09/30 12:56:33;;;;;;;12.57;5.80;;;20.20;60.00;;;;;;4957229;28;90662;-85
2022/09/30 12:59:00;;;;;;;21.55;6.90;;;20.10;59.90;;;;;;4958801;28;88568;-85
2022/09/30 13:01:34;;;;;;;19.38;6.72;;;20.10;60.00;;;;;;4958296;28;87382;-84
2022/09/30 13:03:59;;;;;;;14.82;5.90;;;20.10;60.40;;;;;;4955911;28;88314;-84
2022/09/30 13:06:46;;;;;;;20.70;6.75;;;20.10;60.10;;;;;;4958203;28;87446;-84
2022/09/30 13:09:21;;;;;;;16.85;6.15;;;20.20;60.00;;;;;;4958236;28;87780;-83
2022/09/30 13:11:53;;;;;;;22.70;6.15;;;20.20;59.80;;;;;;4957111;28;87870;-84
2022/09/30 13:14:28;;;;;;;21.00;6.57;;;20.30;59.70;;;;;;4956881;28;87486;-84
2022/09/30 13:17:04;;;;;;;15.85;6.03;;;20.40;59.40;;;;;;4962414;28;87436;-84
2022/09/30 13:19:56;;;;;;;20.38;6.40;;;20.50;59.40;;;;;;4956247;28;88716;-83
2022/09/30 13:22:28;;;;;;;18.27;5.80;;;20.50;59.30;;;;;;4909342;28;91375;-83